createdAt,value
2019-01-23T00:00:38.373Z,27.63
2019-01-23T00:03:05.743Z,25.50
2019-01-23T00:05:33.148Z,26.80
2019-01-23T00:08:00.626Z,31.70
2019-01-23T00:10:28.024Z,32.80
2019-01-23T00:12:55.302Z,29.07
2019-01-23T00:15:22.947Z,32.13
2019-01-23T00:17:51.699Z,31.60
2019-01-23T00:20:18.678Z,29.43
2019-01-23T00:22:45.726Z,32.47
2019-01-23T00:25:13.170Z,29.00
2019-01-23T00:27:40.576Z,30.53
2019-01-23T00:30:08.455Z,27.43
2019-01-23T00:32:36.148Z,31.00
2019-01-23T00:35:03.828Z,32.33
2019-01-23T00:37:31.356Z,26.77
2019-01-23T00:39:58.516Z,26.73
2019-01-23T00:42:25.710Z,27.77
2019-01-23T00:44:52.960Z,24.67
2019-01-23T00:47:20.180Z,28.27
2019-01-23T00:49:47.394Z,32.87
2019-01-23T00:52:14.369Z,24.70
2019-01-23T00:54:41.371Z,21.57
2019-01-23T00:57:08.184Z,26.60
2019-01-23T00:59:36.141Z,26.47
2019-01-23T01:02:03.360Z,29.97
2019-01-23T01:04:30.175Z,24.07
2019-01-23T01:06:58.546Z,30.33
2019-01-23T01:09:25.762Z,31.23
2019-01-23T01:11:52.772Z,23.50
2019-01-23T01:14:19.618Z,28.93
2019-01-23T01:16:46.528Z,21.40
2019-01-23T01:19:13.428Z,31.70
2019-01-23T01:21:40.583Z,29.37
2019-01-23T01:24:07.444Z,24.37
2019-01-23T01:26:34.267Z,31.60
2019-01-23T01:29:01.692Z,27.13
2019-01-23T01:31:28.657Z,28.27
2019-01-23T01:33:55.555Z,20.70
2019-01-23T01:36:22.427Z,26.97
2019-01-23T01:38:49.328Z,24.30
2019-01-23T01:41:16.312Z,19.70
2019-01-23T01:43:43.193Z,22.47
2019-01-23T01:46:10.107Z,26.30
2019-01-23T01:48:36.976Z,29.70
2019-01-23T01:51:04.196Z,32.73
2019-01-23T01:53:31.052Z,29.77
2019-01-23T01:55:58.076Z,25.10
2019-01-23T01:58:24.931Z,25.80
2019-01-23T02:00:51.880Z,26.10
2019-01-23T02:03:18.728Z,21.80
2019-01-23T02:05:45.704Z,28.70
2019-01-23T02:08:12.558Z,22.43
2019-01-23T02:10:39.446Z,27.30
2019-01-23T02:13:06.296Z,24.57
2019-01-23T02:15:33.269Z,31.60
2019-01-23T02:18:00.307Z,33.70
2019-01-23T02:20:27.260Z,28.37
2019-01-23T02:22:54.212Z,17.07
2019-01-23T02:25:21.393Z,29.00
2019-01-23T02:27:51.072Z,23.43
2019-01-23T02:30:22.306Z,19.07
2019-01-23T02:32:49.199Z,34.90
2019-01-23T02:35:16.226Z,33.70
2019-01-23T02:37:43.205Z,21.70
2019-01-23T02:40:11.806Z,29.83
2019-01-23T02:42:38.669Z,27.80
2019-01-23T02:45:05.608Z,33.20
2019-01-23T02:47:32.454Z,37.07
2019-01-23T02:49:59.307Z,27.00
2019-01-23T02:52:26.253Z,18.97
2019-01-23T02:54:53.113Z,27.30
2019-01-23T02:57:20.070Z,31.93
2019-01-23T02:59:49.639Z,29.07
2019-01-23T03:02:16.573Z,21.90
2019-01-23T03:04:43.445Z,28.40
2019-01-23T03:07:10.409Z,22.67
2019-01-23T03:09:37.280Z,31.07
2019-01-23T03:12:04.140Z,33.70
2019-01-23T03:14:30.988Z,26.07
2019-01-23T03:16:57.833Z,32.73
2019-01-23T03:19:25.569Z,31.30
2019-01-23T03:21:52.535Z,26.20
2019-01-23T03:24:22.431Z,27.43
2019-01-23T03:26:49.556Z,26.40
2019-01-23T03:29:16.410Z,27.87
2019-01-23T03:31:43.353Z,27.70
2019-01-23T03:34:10.267Z,33.90
2019-01-23T03:36:37.159Z,26.47
2019-01-23T03:39:05.555Z,37.40
2019-01-23T03:41:32.432Z,33.23
2019-01-23T03:43:59.347Z,34.20
2019-01-23T03:46:26.198Z,31.83
2019-01-23T03:48:53.077Z,32.83
2019-01-23T03:51:19.920Z,28.53
2019-01-23T03:53:46.760Z,30.03
2019-01-23T03:56:13.615Z,35.00
2019-01-23T03:58:40.625Z,25.70
2019-01-23T04:01:07.469Z,29.80
2019-01-23T04:03:34.583Z,24.27
2019-01-23T04:06:01.348Z,21.03
2019-01-23T04:08:28.167Z,31.73
2019-01-23T04:10:55.048Z,22.63
2019-01-23T04:13:21.906Z,33.17
2019-01-23T04:15:48.724Z,26.33
2019-01-23T04:18:15.628Z,28.70
2019-01-23T04:20:42.474Z,30.53
2019-01-23T04:23:09.301Z,33.50
2019-01-23T04:25:36.277Z,28.83
2019-01-23T04:28:03.119Z,27.37
2019-01-23T04:30:29.945Z,28.27
2019-01-23T04:32:57.020Z,33.97
2019-01-23T04:35:23.957Z,25.50
2019-01-23T04:37:50.787Z,24.90
2019-01-23T04:40:17.825Z,30.07
2019-01-23T04:42:44.648Z,33.03
2019-01-23T04:45:12.124Z,34.10
2019-01-23T04:47:39.044Z,29.20
2019-01-23T04:50:06.645Z,25.77
2019-01-23T04:52:44.670Z,30.80
2019-01-23T04:55:11.519Z,28.87
2019-01-23T04:57:38.468Z,25.00
2019-01-23T05:00:05.991Z,28.93
2019-01-23T05:02:32.897Z,23.50
2019-01-23T05:04:59.711Z,23.97
2019-01-23T05:07:26.592Z,19.87
2019-01-23T05:09:53.408Z,20.90
2019-01-23T05:12:20.265Z,24.57
2019-01-23T05:14:47.347Z,22.40
2019-01-23T05:17:14.192Z,23.63
2019-01-23T05:19:41.052Z,27.23
2019-01-23T05:22:09.178Z,25.73
2019-01-23T05:24:36.051Z,24.47
2019-01-23T05:27:03.002Z,20.13
2019-01-23T05:29:29.965Z,28.67
2019-01-23T05:31:56.825Z,27.17
2019-01-23T05:34:23.655Z,27.10
2019-01-23T05:36:50.556Z,25.77
2019-01-23T05:39:17.400Z,32.30
2019-01-23T05:41:44.320Z,31.40
2019-01-23T05:44:11.175Z,30.90
2019-01-23T05:46:38.131Z,29.90
2019-01-23T05:49:05.061Z,32.83
2019-01-23T05:51:31.942Z,31.30
2019-01-23T05:53:58.808Z,28.30
2019-01-23T05:56:25.840Z,26.57
2019-01-23T05:58:52.835Z,26.23
2019-01-23T06:01:19.784Z,31.13
2019-01-23T06:03:46.608Z,30.60
2019-01-23T06:06:13.451Z,26.37
2019-01-23T06:08:40.289Z,33.07
2019-01-23T06:11:07.111Z,33.07
2019-01-23T06:13:34.001Z,34.33
2019-01-23T06:16:00.844Z,30.30
2019-01-23T06:18:27.617Z,31.00
2019-01-23T06:20:55.646Z,33.90
2019-01-23T06:23:22.585Z,32.37
2019-01-23T06:25:49.438Z,33.70
2019-01-23T06:28:16.309Z,30.60
2019-01-23T06:30:43.201Z,29.63
2019-01-23T06:33:10.069Z,34.40
2019-01-23T06:35:37.969Z,28.40
2019-01-23T06:38:04.795Z,31.40
2019-01-23T06:40:31.595Z,33.83
2019-01-23T06:42:58.501Z,25.77
2019-01-23T06:45:25.374Z,35.80
2019-01-23T06:47:53.045Z,37.47
2019-01-23T06:50:20.549Z,35.90
2019-01-23T06:52:47.441Z,35.20
2019-01-23T06:55:14.304Z,30.80
2019-01-23T06:57:41.611Z,32.47
2019-01-23T07:00:16.869Z,27.00
2019-01-23T07:02:39.429Z,38.90
2019-01-23T07:05:06.579Z,37.40
2019-01-23T07:07:33.513Z,36.57
2019-01-23T07:10:00.398Z,39.47
2019-01-23T07:12:27.252Z,40.73
2019-01-23T07:14:54.135Z,36.73
2019-01-23T07:17:21.049Z,38.33
2019-01-23T07:19:47.897Z,34.83
2019-01-23T07:22:14.769Z,33.77
2019-01-23T07:24:41.607Z,40.07
2019-01-23T07:27:08.479Z,42.13
2019-01-23T07:29:35.311Z,42.57
2019-01-23T07:32:02.264Z,38.90
2019-01-23T07:34:29.219Z,39.70
2019-01-23T07:36:56.090Z,46.00
2019-01-23T07:39:22.941Z,27.30
2019-01-23T07:41:49.980Z,36.90
2019-01-23T07:44:17.150Z,38.77
2019-01-23T07:46:44.007Z,38.87
2019-01-23T07:49:11.089Z,46.07
2019-01-23T07:51:38.027Z,27.17
2019-01-23T07:54:04.889Z,38.30
2019-01-23T07:56:31.764Z,46.87
2019-01-23T07:58:58.578Z,42.20
2019-01-23T08:01:25.444Z,43.17
2019-01-23T08:03:52.365Z,47.67
2019-01-23T08:06:19.196Z,49.80
2019-01-23T08:08:46.024Z,51.20
2019-01-23T08:11:12.878Z,48.60
2019-01-23T08:13:39.704Z,48.13
2019-01-23T08:16:06.543Z,47.90
2019-01-23T08:18:33.656Z,34.97
2019-01-23T08:21:00.525Z,39.17
2019-01-23T08:23:27.375Z,44.13
2019-01-23T08:25:55.454Z,45.00
2019-01-23T08:28:22.377Z,56.10
2019-01-23T08:30:49.201Z,35.17
2019-01-23T08:33:16.060Z,38.67
2019-01-23T08:35:42.997Z,47.27
2019-01-23T08:38:09.831Z,45.50
2019-01-23T08:40:36.676Z,41.20
2019-01-23T08:43:03.589Z,58.57
2019-01-23T08:45:30.592Z,49.10
2019-01-23T08:47:57.573Z,35.70
2019-01-23T08:50:25.881Z,44.27
2019-01-23T08:52:52.699Z,51.97
2019-01-23T08:55:19.773Z,44.13
2019-01-23T08:57:46.645Z,45.10
2019-01-23T09:00:13.715Z,44.43
2019-01-23T09:02:40.746Z,48.63
2019-01-23T09:05:08.010Z,48.43
2019-01-23T09:07:34.863Z,39.17
2019-01-23T09:10:02.005Z,61.47
2019-01-23T09:12:28.937Z,60.13
2019-01-23T09:14:55.758Z,50.73
2019-01-23T09:17:22.644Z,51.77
2019-01-23T09:19:49.486Z,62.63
2019-01-23T09:22:16.333Z,43.57
2019-01-23T09:24:43.349Z,55.17
2019-01-23T09:27:10.216Z,60.07
2019-01-23T09:29:37.190Z,54.80
2019-01-23T09:32:22.518Z,39.53
2019-01-23T09:35:14.572Z,43.47
2019-01-23T09:37:46.608Z,55.43
2019-01-23T09:40:31.763Z,52.93
2019-01-23T09:43:18.359Z,51.87
2019-01-23T09:46:07.875Z,68.30
2019-01-23T09:48:47.984Z,68.67
2019-01-23T09:51:33.160Z,66.07
2019-01-23T09:54:02.668Z,61.80
2019-01-23T09:56:29.464Z,50.87
2019-01-23T09:58:56.371Z,54.47
2019-01-23T10:01:23.236Z,54.97
2019-01-23T10:03:50.127Z,62.27
2019-01-23T10:06:17.012Z,56.63
2019-01-23T10:08:45.207Z,54.10
2019-01-23T10:11:12.393Z,52.60
2019-01-23T10:13:39.397Z,61.20
2019-01-23T10:16:11.300Z,51.97
2019-01-23T10:18:38.196Z,55.07
2019-01-23T10:21:05.251Z,48.10
2019-01-23T10:23:32.154Z,69.40
2019-01-23T10:25:58.975Z,70.30
2019-01-23T10:28:26.854Z,54.10
2019-01-23T10:30:53.827Z,65.23
2019-01-23T10:33:22.821Z,58.40
2019-01-23T10:35:49.978Z,56.90
2019-01-23T10:38:16.932Z,48.40
2019-01-23T10:40:43.780Z,39.57
2019-01-23T10:43:10.780Z,61.07
2019-01-23T10:45:37.789Z,51.90
2019-01-23T10:48:04.616Z,46.93
2019-01-23T10:50:31.713Z,67.00
2019-01-23T10:52:58.612Z,58.67
2019-01-23T10:55:25.572Z,53.60
2019-01-23T10:57:52.394Z,68.50
2019-01-23T11:00:19.556Z,55.27
2019-01-23T11:02:46.480Z,56.83
2019-01-23T11:05:17.170Z,68.10
2019-01-23T11:07:49.534Z,62.83
2019-01-23T11:10:18.028Z,55.70
2019-01-23T11:12:44.889Z,62.43
2019-01-23T11:15:12.179Z,56.43
2019-01-23T11:17:39.128Z,64.40
2019-01-23T11:20:07.482Z,59.40
2019-01-23T11:22:34.320Z,66.50
2019-01-23T11:25:01.521Z,47.63
2019-01-23T11:27:28.561Z,43.80
2019-01-23T11:29:55.633Z,57.30
2019-01-23T11:32:22.459Z,44.43
2019-01-23T11:34:49.321Z,44.17
2019-01-23T11:37:16.187Z,43.07
2019-01-23T11:39:43.036Z,50.00
2019-01-23T11:42:09.860Z,53.07
2019-01-23T11:44:36.792Z,58.77
2019-01-23T11:47:03.716Z,34.27
2019-01-23T11:49:30.548Z,49.40
2019-01-23T11:51:58.483Z,44.70
2019-01-23T11:54:25.764Z,58.97
2019-01-23T11:56:52.603Z,58.30
2019-01-23T11:59:19.546Z,49.80
2019-01-23T12:01:46.417Z,55.20
2019-01-23T12:04:13.248Z,60.70
2019-01-23T12:06:40.424Z,54.23
2019-01-23T12:09:08.189Z,55.33
2019-01-23T12:11:35.033Z,44.90
2019-01-23T12:14:01.880Z,59.00
2019-01-23T12:16:28.705Z,57.10
2019-01-23T12:18:55.531Z,65.07
2019-01-23T12:21:22.482Z,54.13
2019-01-23T12:23:49.348Z,51.07
2019-01-23T12:26:16.420Z,66.47
2019-01-23T12:28:44.458Z,58.33
2019-01-23T12:31:14.019Z,64.80
2019-01-23T12:33:41.019Z,61.70
2019-01-23T12:36:07.901Z,59.83
2019-01-23T12:38:34.851Z,45.50
2019-01-23T12:41:01.719Z,60.53
2019-01-23T12:43:28.791Z,54.00
2019-01-23T12:45:55.709Z,52.47
2019-01-23T12:48:22.610Z,54.33
2019-01-23T12:50:50.554Z,41.10
2019-01-23T12:53:17.409Z,59.03
2019-01-23T12:55:44.298Z,50.67
2019-01-23T12:58:11.191Z,52.43
2019-01-23T13:00:38.188Z,37.90
2019-01-23T13:03:05.187Z,57.40
2019-01-23T13:05:33.228Z,49.10
2019-01-23T13:08:00.039Z,36.80
2019-01-23T13:10:26.895Z,50.23
2019-01-23T13:12:53.947Z,34.80
2019-01-23T13:15:21.731Z,47.07
2019-01-23T13:17:48.668Z,45.67
2019-01-23T13:20:16.099Z,48.70
2019-01-23T13:22:43.996Z,50.97
2019-01-23T13:25:12.448Z,44.63
2019-01-23T13:27:39.457Z,42.17
2019-01-23T13:30:07.464Z,46.97
2019-01-23T13:32:34.396Z,56.97
2019-01-23T13:35:02.419Z,40.90
2019-01-23T13:37:29.244Z,24.87
2019-01-23T13:39:56.113Z,38.80
2019-01-23T13:42:23.051Z,39.37
2019-01-23T13:44:50.000Z,34.37
2019-01-23T13:47:16.787Z,35.40
2019-01-23T13:49:43.660Z,29.33
2019-01-23T13:52:10.507Z,34.97
2019-01-23T13:54:37.353Z,38.90
2019-01-23T13:57:04.386Z,35.30
2019-01-23T13:59:31.232Z,31.33
2019-01-23T14:01:58.136Z,47.10
2019-01-23T14:04:24.927Z,43.37
2019-01-23T14:06:51.716Z,38.10
2019-01-23T14:09:18.512Z,44.33
2019-01-23T14:11:45.311Z,44.20
2019-01-23T14:14:12.126Z,33.87
2019-01-23T14:16:38.915Z,38.87
2019-01-23T14:19:05.771Z,37.50
2019-01-23T14:21:32.548Z,30.93
2019-01-23T14:23:59.381Z,38.77
2019-01-23T14:26:26.413Z,33.90
2019-01-23T14:28:53.233Z,36.67
2019-01-23T14:31:20.070Z,37.70
2019-01-23T14:33:46.906Z,30.67
2019-01-23T14:36:13.767Z,35.20
2019-01-23T14:38:40.620Z,32.60
2019-01-23T14:41:07.437Z,38.53
2019-01-23T14:43:34.249Z,34.70
2019-01-23T14:46:01.029Z,33.80
2019-01-23T14:48:27.882Z,37.50
2019-01-23T14:50:54.814Z,36.07
2019-01-23T14:53:21.988Z,28.73
2019-01-23T14:55:48.767Z,29.60
2019-01-23T14:58:16.069Z,30.43
2019-01-23T15:00:42.913Z,27.60
2019-01-23T15:03:09.852Z,26.73
2019-01-23T15:05:36.745Z,33.33
2019-01-23T15:08:03.628Z,26.67
2019-01-23T15:10:30.635Z,27.63
2019-01-23T15:12:57.891Z,25.43
2019-01-23T15:15:24.893Z,27.97
2019-01-23T15:17:51.906Z,31.87
2019-01-23T15:20:20.111Z,30.90
2019-01-23T15:22:46.955Z,34.50
2019-01-23T15:25:14.247Z,36.07
2019-01-23T15:27:41.192Z,26.63
2019-01-23T15:30:08.635Z,26.90
2019-01-23T15:32:35.452Z,29.30
2019-01-23T15:35:02.552Z,34.10
2019-01-23T15:37:29.399Z,25.20
2019-01-23T15:39:56.195Z,21.67
2019-01-23T15:42:23.058Z,28.67
2019-01-23T15:44:49.901Z,28.57
2019-01-23T15:47:16.735Z,25.83
2019-01-23T15:49:43.506Z,23.13
2019-01-23T15:52:10.290Z,25.17
2019-01-23T15:54:37.289Z,21.37
2019-01-23T15:57:04.101Z,24.03
2019-01-23T15:59:30.892Z,21.77
2019-01-23T16:01:57.825Z,26.53
2019-01-23T16:04:24.616Z,21.40
2019-01-23T16:06:51.450Z,21.27
2019-01-23T16:09:18.466Z,19.07
2019-01-23T16:11:45.264Z,24.40
2019-01-23T16:14:12.069Z,23.77
2019-01-23T16:16:39.236Z,17.80
2019-01-23T16:19:06.146Z,26.77
2019-01-23T16:21:33.050Z,26.00
2019-01-23T16:23:59.889Z,23.20
2019-01-23T16:26:26.715Z,23.67
2019-01-23T16:28:53.543Z,24.93
2019-01-23T16:31:20.351Z,20.07
2019-01-23T16:33:47.142Z,25.50
2019-01-23T16:36:13.926Z,22.17
2019-01-23T16:38:41.068Z,18.33
2019-01-23T16:41:08.809Z,15.00
2019-01-23T16:43:35.755Z,11.70
2019-01-23T16:46:02.955Z,15.00
2019-01-23T16:48:29.758Z,14.47
2019-01-23T16:50:57.701Z,20.63
2019-01-23T16:53:24.776Z,21.50
2019-01-23T16:55:51.646Z,19.90
2019-01-23T16:58:18.558Z,18.90
2019-01-23T17:00:45.477Z,18.40
2019-01-23T17:03:12.586Z,19.23
2019-01-23T17:05:39.403Z,20.50
2019-01-23T17:08:07.237Z,20.23
2019-01-23T17:10:34.152Z,20.27
2019-01-23T17:13:01.044Z,19.70
2019-01-23T17:15:27.847Z,21.27
2019-01-23T17:17:54.691Z,21.47
2019-01-23T17:20:23.020Z,17.00
2019-01-23T17:22:49.964Z,16.87
2019-01-23T17:25:16.825Z,16.27
2019-01-23T17:27:43.944Z,18.50
2019-01-23T17:30:11.274Z,18.17
2019-01-23T17:32:38.144Z,20.40
2019-01-23T17:35:05.535Z,18.27
2019-01-23T17:37:32.368Z,18.30
2019-01-23T17:39:59.304Z,18.67
2019-01-23T17:42:27.343Z,18.10
2019-01-23T17:44:54.411Z,10.87
2019-01-23T17:47:21.450Z,18.07
2019-01-23T17:49:48.395Z,18.43
2019-01-23T17:52:15.224Z,17.50
2019-01-23T17:54:42.011Z,17.60
2019-01-23T17:57:08.820Z,16.27
2019-01-23T17:59:37.298Z,17.47
2019-01-23T18:02:05.561Z,22.30
2019-01-23T18:04:32.423Z,19.27
2019-01-23T18:06:59.441Z,15.20
2019-01-23T18:09:26.310Z,16.47
2019-01-23T18:11:53.156Z,18.13
2019-01-23T18:14:20.085Z,18.87
2019-01-23T18:16:46.879Z,17.20
2019-01-23T18:19:13.716Z,16.50
2019-01-23T18:21:40.496Z,17.37
2019-01-23T18:24:07.372Z,13.73
2019-01-23T18:26:37.719Z,13.67
2019-01-23T18:29:03.171Z,15.70
2019-01-23T18:31:38.275Z,14.20
2019-01-23T18:34:27.569Z,12.60
2019-01-23T18:37:14.138Z,19.83
2019-01-23T18:39:53.431Z,15.47
2019-01-23T18:42:50.496Z,13.63
2019-01-23T18:45:23.120Z,15.87
2019-01-23T18:48:13.097Z,17.73
2019-01-23T18:50:44.595Z,19.87
2019-01-23T18:53:12.422Z,19.07
2019-01-23T18:55:39.717Z,19.17
2019-01-23T18:58:06.944Z,22.30
2019-01-23T19:00:33.943Z,22.10
2019-01-23T19:03:06.945Z,16.57
2019-01-23T19:05:29.953Z,19.20
2019-01-23T19:07:56.994Z,13.60
2019-01-23T19:10:23.776Z,15.33
2019-01-23T19:12:50.740Z,21.60
2019-01-23T19:15:17.796Z,12.73
2019-01-23T19:17:44.592Z,13.47
2019-01-23T19:20:15.429Z,16.77
2019-01-23T19:22:42.423Z,15.63
2019-01-23T19:25:09.421Z,15.77
2019-01-23T19:27:36.270Z,12.83
2019-01-23T19:30:09.121Z,13.40
2019-01-23T19:32:32.732Z,18.37
2019-01-23T19:34:59.639Z,11.67
2019-01-23T19:37:26.588Z,13.60
2019-01-23T19:39:53.370Z,18.30
2019-01-23T19:42:20.222Z,15.97
2019-01-23T19:44:47.317Z,16.67
2019-01-23T19:47:14.255Z,20.83
2019-01-23T19:49:41.200Z,17.33
2019-01-23T19:52:08.142Z,14.67
2019-01-23T19:54:34.951Z,16.70
2019-01-23T19:57:02.113Z,16.47
2019-01-23T19:59:28.921Z,15.10
2019-01-23T20:01:55.829Z,23.03
2019-01-23T20:04:22.655Z,18.53
2019-01-23T20:06:49.591Z,13.73
2019-01-23T20:09:16.447Z,13.30
2019-01-23T20:11:43.515Z,15.93
2019-01-23T20:14:10.544Z,21.40
2019-01-23T20:16:37.679Z,19.57
2019-01-23T20:19:07.269Z,20.97
2019-01-23T20:21:34.323Z,16.10
2019-01-23T20:24:01.329Z,9.80
2019-01-23T20:26:28.728Z,14.10
2019-01-23T20:28:55.949Z,14.43
2019-01-23T20:31:23.168Z,16.10
2019-01-23T20:33:50.596Z,16.10
2019-01-23T20:36:17.732Z,14.00
2019-01-23T20:38:44.942Z,19.67
2019-01-23T20:41:12.167Z,18.00
2019-01-23T20:43:39.589Z,14.47
2019-01-23T20:46:06.683Z,18.63
2019-01-23T20:48:33.851Z,17.87
2019-01-23T20:51:01.087Z,20.63
2019-01-23T20:53:28.397Z,18.90
2019-01-23T20:55:55.556Z,19.97
2019-01-23T20:58:22.898Z,19.10
2019-01-23T21:00:50.035Z,22.70
2019-01-23T21:03:17.068Z,22.87
2019-01-23T21:05:44.267Z,20.70
2019-01-23T21:08:11.481Z,18.60
2019-01-23T21:10:38.603Z,18.90
2019-01-23T21:13:05.615Z,22.70
2019-01-23T21:15:33.158Z,14.27
2019-01-23T21:18:00.816Z,20.03
2019-01-23T21:20:29.598Z,23.23
2019-01-23T21:22:56.890Z,20.57
2019-01-23T21:25:24.235Z,20.30
2019-01-23T21:27:51.336Z,18.33
2019-01-23T21:30:20.212Z,17.23
2019-01-23T21:32:47.395Z,19.63
2019-01-23T21:35:14.727Z,18.20
2019-01-23T21:37:42.075Z,19.73
2019-01-23T21:40:11.369Z,20.20
2019-01-23T21:42:38.538Z,18.53
2019-01-23T21:45:06.923Z,15.73
2019-01-23T21:47:34.095Z,17.73
2019-01-23T21:50:02.408Z,23.83
2019-01-23T21:52:29.848Z,17.47
2019-01-23T21:54:57.395Z,22.33
2019-01-23T21:57:24.546Z,18.30
2019-01-23T21:59:51.820Z,15.10
2019-01-23T22:02:19.057Z,20.77
2019-01-23T22:04:45.991Z,17.33
2019-01-23T22:07:13.143Z,17.83
2019-01-23T22:09:40.353Z,18.97
2019-01-23T22:12:07.264Z,17.47
2019-01-23T22:14:34.099Z,20.10
2019-01-23T22:17:00.981Z,17.07
2019-01-23T22:19:30.647Z,18.07
2019-01-23T22:21:57.511Z,14.70
2019-01-23T22:24:24.644Z,23.20
2019-01-23T22:26:51.456Z,16.17
2019-01-23T22:29:18.231Z,23.87
2019-01-23T22:31:45.076Z,21.97
2019-01-23T22:34:11.919Z,22.00
2019-01-23T22:36:39.668Z,16.37
2019-01-23T22:39:07.362Z,16.80
2019-01-23T22:41:34.257Z,18.20
2019-01-23T22:44:01.187Z,17.47
2019-01-23T22:46:28.977Z,21.90
2019-01-23T22:48:55.891Z,18.00
2019-01-23T22:51:22.744Z,21.97
2019-01-23T22:53:49.819Z,18.30
2019-01-23T22:56:16.687Z,22.10
2019-01-23T22:58:43.564Z,19.17
2019-01-23T23:01:15.803Z,20.10
2019-01-23T23:03:42.831Z,20.47
2019-01-23T23:06:09.753Z,22.43
2019-01-23T23:08:37.803Z,14.00
2019-01-23T23:11:04.938Z,17.23
2019-01-23T23:13:32.033Z,21.67
2019-01-23T23:15:58.848Z,24.27
2019-01-23T23:18:25.668Z,20.00
2019-01-23T23:20:52.508Z,20.57
2019-01-23T23:23:19.398Z,17.70
2019-01-23T23:25:46.284Z,14.40
2019-01-23T23:28:13.203Z,18.40
2019-01-23T23:30:40.044Z,22.03
2019-01-23T23:33:06.873Z,19.63
2019-01-23T23:35:33.715Z,18.23
2019-01-23T23:38:00.689Z,14.90
2019-01-23T23:40:27.602Z,20.00
2019-01-23T23:42:54.446Z,23.47
2019-01-23T23:45:21.759Z,23.80
2019-01-23T23:47:48.908Z,21.00
2019-01-23T23:50:15.948Z,16.70
2019-01-23T23:52:42.899Z,14.80
2019-01-23T23:55:10.213Z,24.10
2019-01-23T23:57:37.263Z,21.07
